sensor_id;sensor_type;location;lat;lon;timestamp;P1;durP1;ratioP1;P2;durP2;ratioP2
79399;SDS011;68856;45.586;10.264;2023-04-03T00:01:45;4.30;;;3.75;;
79399;SDS011;68856;45.586;10.264;2023-04-03T00:04:11;6.38;;;4.78;;
79399;SDS011;68856;45.586;10.264;2023-04-03T00:06:38;5.13;;;4.10;;
79399;SDS011;68856;45.586;10.264;2023-04-03T00:09:04;4.65;;;4.13;;
79399;SDS011;68856;45.586;10.264;2023-04-03T00:11:30;5.53;;;4.20;;
79399;SDS011;68856;45.586;10.264;2023-04-03T00:13:56;7.47;;;4.45;;
79399;SDS011;68856;45.586;10.264;2023-04-03T00:16:22;5.82;;;4.22;;
79399;SDS011;68856;45.586;10.264;2023-04-03T00:18:49;4.22;;;3.83;;
79399;SDS011;68856;45.586;10.264;2023-04-03T00:21:15;4.47;;;4.03;;
79399;SDS011;68856;45.586;10.264;2023-04-03T00:23:41;5.05;;;3.83;;
79399;SDS011;68856;45.586;10.264;2023-04-03T00:26:07;6.53;;;5.38;;
79399;SDS011;68856;45.586;10.264;2023-04-03T00:28:34;5.03;;;4.18;;
79399;SDS011;68856;45.586;10.264;2023-04-03T00:31:00;4.07;;;3.67;;
79399;SDS011;68856;45.586;10.264;2023-04-03T00:33:26;5.10;;;3.70;;
79399;SDS011;68856;45.586;10.264;2023-04-03T00:35:53;5.20;;;4.40;;
79399;SDS011;68856;45.586;10.264;2023-04-03T00:38:19;4.75;;;4.05;;
79399;SDS011;68856;45.586;10.264;2023-04-03T00:40:46;5.07;;;4.00;;
79399;SDS011;68856;45.586;10.264;2023-04-03T00:43:15;6.60;;;4.00;;
79399;SDS011;68856;45.586;10.264;2023-04-03T00:45:44;5.07;;;3.63;;
79399;SDS011;68856;45.586;10.264;2023-04-03T00:48:14;6.40;;;4.40;;
79399;SDS011;68856;45.586;10.264;2023-04-03T00:50:59;5.60;;;5.00;;
79399;SDS011;68856;45.586;10.264;2023-04-03T00:53:31;6.20;;;3.85;;
79399;SDS011;68856;45.586;10.264;2023-04-03T00:56:08;4.72;;;3.67;;
79399;SDS011;68856;45.586;10.264;2023-04-03T00:58:40;5.40;;;4.07;;
79399;SDS011;68856;45.586;10.264;2023-04-03T01:01:15;4.22;;;3.80;;
79399;SDS011;68856;45.586;10.264;2023-04-03T01:03:47;4.63;;;3.35;;
79399;SDS011;68856;45.586;10.264;2023-04-03T01:06:14;6.15;;;3.55;;
79399;SDS011;68856;45.586;10.264;2023-04-03T01:08:46;3.45;;;3.08;;
79399;SDS011;68856;45.586;10.264;2023-04-03T01:11:15;3.85;;;3.13;;
79399;SDS011;68856;45.586;10.264;2023-04-03T01:13:42;2.95;;;2.70;;
79399;SDS011;68856;45.586;10.264;2023-04-03T01:16:08;2.40;;;2.20;;
79399;SDS011;68856;45.586;10.264;2023-04-03T01:18:35;3.22;;;2.90;;
79399;SDS011;68856;45.586;10.264;2023-04-03T01:23:59;4.63;;;3.75;;
79399;SDS011;68856;45.586;10.264;2023-04-03T01:26:35;4.30;;;3.05;;
79399;SDS011;68856;45.586;10.264;2023-04-03T01:29:02;3.88;;;2.60;;
79399;SDS011;68856;45.586;10.264;2023-04-03T01:31:32;4.18;;;3.53;;
79399;SDS011;68856;45.586;10.264;2023-04-03T01:34:02;6.43;;;3.47;;
79399;SDS011;68856;45.586;10.264;2023-04-03T01:36:30;3.72;;;3.17;;
79399;SDS011;68856;45.586;10.264;2023-04-03T01:38:58;3.63;;;3.17;;
79399;SDS011;68856;45.586;10.264;2023-04-03T01:41:25;3.80;;;3.40;;
79399;SDS011;68856;45.586;10.264;2023-04-03T01:43:52;3.75;;;3.33;;
79399;SDS011;68856;45.586;10.264;2023-04-03T01:46:19;3.67;;;3.20;;
79399;SDS011;68856;45.586;10.264;2023-04-03T01:48:45;5.28;;;3.70;;
79399;SDS011;68856;45.586;10.264;2023-04-03T01:51:12;3.95;;;3.55;;
79399;SDS011;68856;45.586;10.264;2023-04-03T01:53:38;5.85;;;3.58;;
79399;SDS011;68856;45.586;10.264;2023-04-03T01:56:05;3.70;;;3.40;;
79399;SDS011;68856;45.586;10.264;2023-04-03T01:58:31;3.75;;;3.10;;
79399;SDS011;68856;45.586;10.264;2023-04-03T02:00:57;4.85;;;4.20;;
79399;SDS011;68856;45.586;10.264;2023-04-03T02:03:24;4.20;;;3.40;;
79399;SDS011;68856;45.586;10.264;2023-04-03T02:05:50;3.90;;;3.53;;
79399;SDS011;68856;45.586;10.264;2023-04-03T02:08:16;6.20;;;4.13;;
79399;SDS011;68856;45.586;10.264;2023-04-03T02:10:43;3.22;;;2.92;;
79399;SDS011;68856;45.586;10.264;2023-04-03T02:13:12;4.07;;;3.72;;
79399;SDS011;68856;45.586;10.264;2023-04-03T02:15:38;4.20;;;3.80;;
79399;SDS011;68856;45.586;10.264;2023-04-03T02:18:05;3.00;;;2.42;;
79399;SDS011;68856;45.586;10.264;2023-04-03T02:20:32;2.58;;;2.33;;
79399;SDS011;68856;45.586;10.264;2023-04-03T02:22:58;2.83;;;2.50;;
79399;SDS011;68856;45.586;10.264;2023-04-03T02:25:25;3.63;;;3.13;;
79399;SDS011;68856;45.586;10.264;2023-04-03T02:27:51;2.28;;;2.03;;
79399;SDS011;68856;45.586;10.264;2023-04-03T02:30:18;3.30;;;1.77;;
79399;SDS011;68856;45.586;10.264;2023-04-03T02:32:44;4.32;;;3.55;;
79399;SDS011;68856;45.586;10.264;2023-04-03T02:35:10;5.78;;;4.25;;
79399;SDS011;68856;45.586;10.264;2023-04-03T02:37:37;10.63;;;4.00;;
79399;SDS011;68856;45.586;10.264;2023-04-03T02:40:05;4.10;;;2.78;;
79399;SDS011;68856;45.586;10.264;2023-04-03T02:42:32;3.60;;;3.30;;
79399;SDS011;68856;45.586;10.264;2023-04-03T02:44:58;3.78;;;2.83;;
79399;SDS011;68856;45.586;10.264;2023-04-03T02:47:25;7.95;;;3.70;;
79399;SDS011;68856;45.586;10.264;2023-04-03T02:49:52;3.58;;;3.17;;
79399;SDS011;68856;45.586;10.264;2023-04-03T02:52:19;4.85;;;3.60;;
79399;SDS011;68856;45.586;10.264;2023-04-03T02:54:46;3.97;;;3.17;;
79399;SDS011;68856;45.586;10.264;2023-04-03T02:57:12;4.03;;;3.53;;
79399;SDS011;68856;45.586;10.264;2023-04-03T02:59:38;4.95;;;3.15;;
79399;SDS011;68856;45.586;10.264;2023-04-03T03:02:09;5.85;;;3.88;;
79399;SDS011;68856;45.586;10.264;2023-04-03T03:04:36;3.58;;;3.20;;
79399;SDS011;68856;45.586;10.264;2023-04-03T03:07:02;2.65;;;2.45;;
79399;SDS011;68856;45.586;10.264;2023-04-03T03:09:29;2.85;;;2.25;;
79399;SDS011;68856;45.586;10.264;2023-04-03T03:11:56;4.72;;;3.05;;
79399;SDS011;68856;45.586;10.264;2023-04-03T03:14:23;4.78;;;2.88;;
79399;SDS011;68856;45.586;10.264;2023-04-03T03:16:49;4.07;;;3.30;;
79399;SDS011;68856;45.586;10.264;2023-04-03T03:19:15;3.50;;;3.20;;
79399;SDS011;68856;45.586;10.264;2023-04-03T03:21:42;3.08;;;2.42;;
79399;SDS011;68856;45.586;10.264;2023-04-03T03:24:08;3.75;;;2.90;;
79399;SDS011;68856;45.586;10.264;2023-04-03T03:26:35;2.67;;;2.47;;
79399;SDS011;68856;45.586;10.264;2023-04-03T03:29:01;3.47;;;2.85;;
79399;SDS011;68856;45.586;10.264;2023-04-03T03:31:28;3.58;;;2.55;;
79399;SDS011;68856;45.586;10.264;2023-04-03T03:33:54;2.80;;;2.58;;
79399;SDS011;68856;45.586;10.264;2023-04-03T03:36:20;3.63;;;2.50;;
79399;SDS011;68856;45.586;10.264;2023-04-03T03:38:46;3.25;;;2.53;;
79399;SDS011;68856;45.586;10.264;2023-04-03T03:41:13;3.97;;;2.35;;
79399;SDS011;68856;45.586;10.264;2023-04-03T03:43:39;2.80;;;2.03;;
79399;SDS011;68856;45.586;10.264;2023-04-03T03:46:06;2.33;;;1.65;;
79399;SDS011;68856;45.586;10.264;2023-04-03T03:48:32;1.75;;;1.60;;
79399;SDS011;68856;45.586;10.264;2023-04-03T03:50:58;2.75;;;1.50;;
79399;SDS011;68856;45.586;10.264;2023-04-03T03:53:25;1.38;;;1.27;;
79399;SDS011;68856;45.586;10.264;2023-04-03T03:55:51;1.80;;;1.50;;
79399;SDS011;68856;45.586;10.264;2023-04-03T03:58:17;2.20;;;1.77;;
79399;SDS011;68856;45.586;10.264;2023-04-03T04:00:44;2.00;;;1.77;;
79399;SDS011;68856;45.586;10.264;2023-04-03T04:03:10;2.78;;;1.45;;
79399;SDS011;68856;45.586;10.264;2023-04-03T04:05:36;4.60;;;2.38;;
79399;SDS011;68856;45.586;10.264;2023-04-03T04:08:03;7.28;;;2.97;;
79399;SDS011;68856;45.586;10.264;2023-04-03T04:10:29;6.10;;;3.00;;
79399;SDS011;68856;45.586;10.264;2023-04-03T04:12:55;4.55;;;4.07;;
79399;SDS011;68856;45.586;10.264;2023-04-03T04:15:22;2.92;;;1.80;;
79399;SDS011;68856;45.586;10.264;2023-04-03T04:17:49;3.65;;;2.35;;
79399;SDS011;68856;45.586;10.264;2023-04-03T04:20:15;8.65;;;3.38;;
79399;SDS011;68856;45.586;10.264;2023-04-03T04:22:41;1.98;;;1.80;;
79399;SDS011;68856;45.586;10.264;2023-04-03T04:25:08;3.78;;;1.85;;
79399;SDS011;68856;45.586;10.264;2023-04-03T04:27:35;4.28;;;1.67;;
79399;SDS011;68856;45.586;10.264;2023-04-03T04:30:02;2.13;;;1.92;;
79399;SDS011;68856;45.586;10.264;2023-04-03T04:32:29;2.55;;;2.25;;
79399;SDS011;68856;45.586;10.264;2023-04-03T04:34:55;3.15;;;2.40;;
79399;SDS011;68856;45.586;10.264;2023-04-03T04:37:22;2.88;;;2.13;;
79399;SDS011;68856;45.586;10.264;2023-04-03T04:39:48;3.08;;;2.53;;
79399;SDS011;68856;45.586;10.264;2023-04-03T04:42:14;3.28;;;2.83;;
79399;SDS011;68856;45.586;10.264;2023-04-03T04:44:41;4.28;;;2.65;;
79399;SDS011;68856;45.586;10.264;2023-04-03T04:47:08;4.38;;;2.42;;
79399;SDS011;68856;45.586;10.264;2023-04-03T04:49:34;3.13;;;2.80;;
79399;SDS011;68856;45.586;10.264;2023-04-03T04:52:00;3.88;;;3.47;;
79399;SDS011;68856;45.586;10.264;2023-04-03T04:54:27;6.88;;;3.05;;
79399;SDS011;68856;45.586;10.264;2023-04-03T04:56:53;5.53;;;3.47;;
79399;SDS011;68856;45.586;10.264;2023-04-03T04:59:20;8.07;;;3.97;;
79399;SDS011;68856;45.586;10.264;2023-04-03T05:01:46;7.20;;;3.30;;
79399;SDS011;68856;45.586;10.264;2023-04-03T05:04:12;8.75;;;3.17;;
79399;SDS011;68856;45.586;10.264;2023-04-03T05:06:39;4.35;;;2.78;;
79399;SDS011;68856;45.586;10.264;2023-04-03T05:09:05;8.13;;;4.22;;
79399;SDS011;68856;45.586;10.264;2023-04-03T05:11:32;5.22;;;3.47;;
79399;SDS011;68856;45.586;10.264;2023-04-03T05:13:58;7.75;;;3.05;;
79399;SDS011;68856;45.586;10.264;2023-04-03T05:16:24;8.10;;;3.28;;
79399;SDS011;68856;45.586;10.264;2023-04-03T05:18:51;9.15;;;3.38;;
79399;SDS011;68856;45.586;10.264;2023-04-03T05:21:17;8.35;;;3.45;;
79399;SDS011;68856;45.586;10.264;2023-04-03T05:23:43;6.18;;;3.33;;
79399;SDS011;68856;45.586;10.264;2023-04-03T05:26:09;2.90;;;2.33;;
79399;SDS011;68856;45.586;10.264;2023-04-03T05:28:36;9.75;;;3.60;;
79399;SDS011;68856;45.586;10.264;2023-04-03T05:31:02;6.85;;;3.05;;
79399;SDS011;68856;45.586;10.264;2023-04-03T05:33:28;5.88;;;3.40;;
79399;SDS011;68856;45.586;10.264;2023-04-03T05:35:54;6.65;;;2.00;;
79399;SDS011;68856;45.586;10.264;2023-04-03T05:38:21;4.35;;;2.25;;
79399;SDS011;68856;45.586;10.264;2023-04-03T05:40:47;7.55;;;2.40;;
79399;SDS011;68856;45.586;10.264;2023-04-03T05:43:13;8.00;;;2.50;;
79399;SDS011;68856;45.586;10.264;2023-04-03T05:45:40;4.18;;;2.25;;
79399;SDS011;68856;45.586;10.264;2023-04-03T05:48:07;8.13;;;3.78;;
79399;SDS011;68856;45.586;10.264;2023-04-03T05:50:33;4.93;;;1.80;;
79399;SDS011;68856;45.586;10.264;2023-04-03T05:53:00;3.60;;;1.73;;
79399;SDS011;68856;45.586;10.264;2023-04-03T05:55:28;2.80;;;1.80;;
79399;SDS011;68856;45.586;10.264;2023-04-03T05:57:54;5.90;;;2.30;;
79399;SDS011;68856;45.586;10.264;2023-04-03T06:00:21;3.40;;;2.00;;
79399;SDS011;68856;45.586;10.264;2023-04-03T06:02:47;2.17;;;1.90;;
79399;SDS011;68856;45.586;10.264;2023-04-03T06:05:14;3.58;;;2.42;;
79399;SDS011;68856;45.586;10.264;2023-04-03T06:07:40;4.65;;;2.47;;
79399;SDS011;68856;45.586;10.264;2023-04-03T06:10:06;5.78;;;2.65;;
79399;SDS011;68856;45.586;10.264;2023-04-03T06:12:33;3.83;;;2.10;;
79399;SDS011;68856;45.586;10.264;2023-04-03T06:15:00;8.32;;;2.97;;
79399;SDS011;68856;45.586;10.264;2023-04-03T06:17:27;3.65;;;2.60;;
79399;SDS011;68856;45.586;10.264;2023-04-03T06:19:54;4.30;;;3.00;;
79399;SDS011;68856;45.586;10.264;2023-04-03T06:22:23;6.78;;;3.13;;
79399;SDS011;68856;45.586;10.264;2023-04-03T06:24:50;2.92;;;2.20;;
79399;SDS011;68856;45.586;10.264;2023-04-03T06:27:16;3.95;;;3.22;;
79399;SDS011;68856;45.586;10.264;2023-04-03T06:29:43;6.05;;;3.55;;
79399;SDS011;68856;45.586;10.264;2023-04-03T06:32:10;6.28;;;3.40;;
79399;SDS011;68856;45.586;10.264;2023-04-03T06:34:36;9.07;;;4.15;;
79399;SDS011;68856;45.586;10.264;2023-04-03T06:37:03;5.93;;;4.25;;
79399;SDS011;68856;45.586;10.264;2023-04-03T06:39:29;5.20;;;4.47;;
79399;SDS011;68856;45.586;10.264;2023-04-03T06:41:55;8.00;;;4.78;;
79399;SDS011;68856;45.586;10.264;2023-04-03T06:44:22;7.10;;;4.70;;
79399;SDS011;68856;45.586;10.264;2023-04-03T06:46:48;7.95;;;5.03;;
79399;SDS011;68856;45.586;10.264;2023-04-03T06:49:14;9.65;;;4.28;;
79399;SDS011;68856;45.586;10.264;2023-04-03T06:51:41;4.78;;;4.03;;
79399;SDS011;68856;45.586;10.264;2023-04-03T06:54:07;11.45;;;3.92;;
79399;SDS011;68856;45.586;10.264;2023-04-03T06:56:34;4.47;;;4.00;;
79399;SDS011;68856;45.586;10.264;2023-04-03T06:59:00;8.05;;;4.93;;
79399;SDS011;68856;45.586;10.264;2023-04-03T07:01:27;6.38;;;3.90;;
79399;SDS011;68856;45.586;10.264;2023-04-03T07:03:55;7.60;;;3.50;;
79399;SDS011;68856;45.586;10.264;2023-04-03T07:06:22;5.00;;;3.55;;
79399;SDS011;68856;45.586;10.264;2023-04-03T07:08:51;3.47;;;2.50;;
79399;SDS011;68856;45.586;10.264;2023-04-03T07:11:17;2.80;;;2.42;;
79399;SDS011;68856;45.586;10.264;2023-04-03T07:13:45;3.53;;;2.60;;
79399;SDS011;68856;45.586;10.264;2023-04-03T07:16:11;8.82;;;3.95;;
79399;SDS011;68856;45.586;10.264;2023-04-03T07:18:38;10.55;;;5.30;;
79399;SDS011;68856;45.586;10.264;2023-04-03T07:21:04;3.33;;;2.70;;
79399;SDS011;68856;45.586;10.264;2023-04-03T07:23:31;4.53;;;3.15;;
79399;SDS011;68856;45.586;10.264;2023-04-03T07:25:57;7.13;;;3.40;;
79399;SDS011;68856;45.586;10.264;2023-04-03T07:28:24;4.82;;;3.03;;
79399;SDS011;68856;45.586;10.264;2023-04-03T07:31:00;1.65;;;1.00;;
79399;SDS011;68856;45.586;10.264;2023-04-03T07:33:28;1.00;;;0.90;;
79399;SDS011;68856;45.586;10.264;2023-04-03T07:35:56;1.27;;;0.85;;
79399;SDS011;68856;45.586;10.264;2023-04-03T07:38:22;2.15;;;0.77;;
79399;SDS011;68856;45.586;10.264;2023-04-03T07:40:49;6.60;;;1.52;;
79399;SDS011;68856;45.586;10.264;2023-04-03T07:43:17;2.05;;;0.98;;
79399;SDS011;68856;45.586;10.264;2023-04-03T07:45:45;3.03;;;1.33;;
79399;SDS011;68856;45.586;10.264;2023-04-03T07:48:14;1.08;;;1.00;;
79399;SDS011;68856;45.586;10.264;2023-04-03T07:50:42;1.92;;;1.08;;
79399;SDS011;68856;45.586;10.264;2023-04-03T07:53:09;3.90;;;1.20;;
79399;SDS011;68856;45.586;10.264;2023-04-03T07:55:35;9.50;;;1.10;;
79399;SDS011;68856;45.586;10.264;2023-04-03T07:58:08;1.02;;;0.73;;
79399;SDS011;68856;45.586;10.264;2023-04-03T08:00:36;5.78;;;0.93;;
79399;SDS011;68856;45.586;10.264;2023-04-03T08:03:02;2.63;;;0.93;;
79399;SDS011;68856;45.586;10.264;2023-04-03T08:05:30;2.97;;;1.10;;
79399;SDS011;68856;45.586;10.264;2023-04-03T08:07:56;2.55;;;1.48;;
79399;SDS011;68856;45.586;10.264;2023-04-03T08:10:23;1.38;;;1.10;;
79399;SDS011;68856;45.586;10.264;2023-04-03T08:12:49;3.10;;;1.23;;
79399;SDS011;68856;45.586;10.264;2023-04-03T08:15:16;1.98;;;1.48;;
79399;SDS011;68856;45.586;10.264;2023-04-03T08:17:43;4.45;;;0.98;;
79399;SDS011;68856;45.586;10.264;2023-04-03T08:20:09;2.05;;;0.98;;
79399;SDS011;68856;45.586;10.264;2023-04-03T08:22:36;3.38;;;1.45;;
79399;SDS011;68856;45.586;10.264;2023-04-03T08:25:02;1.05;;;0.95;;
79399;SDS011;68856;45.586;10.264;2023-04-03T08:27:28;3.67;;;1.17;;
79399;SDS011;68856;45.586;10.264;2023-04-03T08:29:55;2.78;;;1.10;;
79399;SDS011;68856;45.586;10.264;2023-04-03T08:32:22;4.13;;;0.95;;
79399;SDS011;68856;45.586;10.264;2023-04-03T08:34:49;3.55;;;1.40;;
79399;SDS011;68856;45.586;10.264;2023-04-03T08:37:15;2.72;;;1.38;;
79399;SDS011;68856;45.586;10.264;2023-04-03T08:39:42;3.30;;;1.95;;
79399;SDS011;68856;45.586;10.264;2023-04-03T08:42:16;3.80;;;1.45;;
79399;SDS011;68856;45.586;10.264;2023-04-03T08:44:55;3.85;;;2.00;;
79399;SDS011;68856;45.586;10.264;2023-04-03T08:47:46;4.18;;;1.27;;
79399;SDS011;68856;45.586;10.264;2023-04-03T08:50:20;4.82;;;1.63;;
79399;SDS011;68856;45.586;10.264;2023-04-03T08:52:52;2.95;;;1.40;;
79399;SDS011;68856;45.586;10.264;2023-04-03T08:55:27;5.05;;;2.08;;
79399;SDS011;68856;45.586;10.264;2023-04-03T08:58:04;3.83;;;1.65;;
79399;SDS011;68856;45.586;10.264;2023-04-03T09:01:21;1.60;;;1.45;;
79399;SDS011;68856;45.586;10.264;2023-04-03T09:04:00;1.92;;;1.23;;
79399;SDS011;68856;45.586;10.264;2023-04-03T09:06:29;2.45;;;1.60;;
79399;SDS011;68856;45.586;10.264;2023-04-03T09:11:40;3.35;;;1.50;;
79399;SDS011;68856;45.586;10.264;2023-04-03T09:14:28;2.28;;;1.40;;
79399;SDS011;68856;45.586;10.264;2023-04-03T09:17:07;2.92;;;2.72;;
79399;SDS011;68856;45.586;10.264;2023-04-03T09:20:03;3.33;;;1.40;;
79399;SDS011;68856;45.586;10.264;2023-04-03T09:22:42;2.17;;;1.52;;
79399;SDS011;68856;45.586;10.264;2023-04-03T09:25:13;2.40;;;1.80;;
79399;SDS011;68856;45.586;10.264;2023-04-03T09:27:47;2.63;;;1.70;;
79399;SDS011;68856;45.586;10.264;2023-04-03T09:30:15;4.97;;;2.25;;
79399;SDS011;68856;45.586;10.264;2023-04-03T09:32:45;4.38;;;2.20;;
79399;SDS011;68856;45.586;10.264;2023-04-03T09:37:46;4.25;;;1.92;;
79399;SDS011;68856;45.586;10.264;2023-04-03T09:42:56;4.93;;;2.10;;
79399;SDS011;68856;45.586;10.264;2023-04-03T09:45:34;2.33;;;2.13;;
79399;SDS011;68856;45.586;10.264;2023-04-03T09:48:08;2.45;;;2.17;;
79399;SDS011;68856;45.586;10.264;2023-04-03T09:50:59;4.70;;;2.30;;
79399;SDS011;68856;45.586;10.264;2023-04-03T09:56:00;5.70;;;2.30;;
79399;SDS011;68856;45.586;10.264;2023-04-03T09:58:30;7.28;;;2.78;;
79399;SDS011;68856;45.586;10.264;2023-04-03T10:00:59;5.93;;;2.70;;
79399;SDS011;68856;45.586;10.264;2023-04-03T10:08:25;4.10;;;2.58;;
79399;SDS011;68856;45.586;10.264;2023-04-03T10:13:42;3.72;;;2.50;;
79399;SDS011;68856;45.586;10.264;2023-04-03T10:16:21;4.57;;;2.25;;
79399;SDS011;68856;45.586;10.264;2023-04-03T10:21:48;4.22;;;2.40;;
79399;SDS011;68856;45.586;10.264;2023-04-03T10:24:51;5.93;;;2.90;;
79399;SDS011;68856;45.586;10.264;2023-04-03T10:27:44;6.25;;;2.53;;
79399;SDS011;68856;45.586;10.264;2023-04-03T10:56:13;6.82;;;2.83;;
79399;SDS011;68856;45.586;10.264;2023-04-03T10:58:58;5.47;;;2.42;;
79399;SDS011;68856;45.586;10.264;2023-04-03T11:01:32;2.70;;;2.50;;
79399;SDS011;68856;45.586;10.264;2023-04-03T11:04:03;5.13;;;2.75;;
79399;SDS011;68856;45.586;10.264;2023-04-03T11:07:14;4.05;;;2.35;;
79399;SDS011;68856;45.586;10.264;2023-04-03T11:09:31;2.58;;;2.35;;
79399;SDS011;68856;45.586;10.264;2023-04-03T11:14:46;2.78;;;2.30;;
79399;SDS011;68856;45.586;10.264;2023-04-03T11:19:45;4.25;;;2.35;;
79399;SDS011;68856;45.586;10.264;2023-04-03T11:25:14;4.75;;;2.70;;
79399;SDS011;68856;45.586;10.264;2023-04-03T11:27:51;3.88;;;2.67;;
79399;SDS011;68856;45.586;10.264;2023-04-03T11:30:33;3.92;;;2.30;;
79399;SDS011;68856;45.586;10.264;2023-04-03T11:36:03;6.03;;;2.58;;
79399;SDS011;68856;45.586;10.264;2023-04-03T11:38:52;3.28;;;2.13;;
79399;SDS011;68856;45.586;10.264;2023-04-03T11:41:29;4.57;;;2.50;;
79399;SDS011;68856;45.586;10.264;2023-04-03T11:44:00;3.65;;;2.42;;
79399;SDS011;68856;45.586;10.264;2023-04-03T11:52:52;6.43;;;2.78;;
79399;SDS011;68856;45.586;10.264;2023-04-03T12:19:13;3.85;;;3.08;;
79399;SDS011;68856;45.586;10.264;2023-04-03T12:24:24;8.02;;;3.35;;
79399;SDS011;68856;45.586;10.264;2023-04-03T12:30:00;5.68;;;2.92;;
79399;SDS011;68856;45.586;10.264;2023-04-03T12:46:38;3.13;;;2.80;;
79399;SDS011;68856;45.586;10.264;2023-04-03T12:51:55;9.05;;;3.20;;
79399;SDS011;68856;45.586;10.264;2023-04-03T12:54:38;4.07;;;3.20;;
79399;SDS011;68856;45.586;10.264;2023-04-03T12:57:09;7.22;;;3.47;;
79399;SDS011;68856;45.586;10.264;2023-04-03T12:59:44;6.57;;;3.63;;
79399;SDS011;68856;45.586;10.264;2023-04-03T13:04:56;6.55;;;3.28;;
79399;SDS011;68856;45.586;10.264;2023-04-03T13:07:25;3.80;;;3.40;;
79399;SDS011;68856;45.586;10.264;2023-04-03T13:12:35;8.63;;;4.05;;
79399;SDS011;68856;45.586;10.264;2023-04-03T13:17:51;9.98;;;4.25;;
79399;SDS011;68856;45.586;10.264;2023-04-03T13:20:20;4.63;;;3.33;;
79399;SDS011;68856;45.586;10.264;2023-04-03T13:23:01;6.90;;;3.58;;
79399;SDS011;68856;45.586;10.264;2023-04-03T13:25:34;7.57;;;3.15;;
79399;SDS011;68856;45.586;10.264;2023-04-03T13:28:05;8.75;;;3.67;;
79399;SDS011;68856;45.586;10.264;2023-04-03T13:30:37;7.22;;;3.40;;
79399;SDS011;68856;45.586;10.264;2023-04-03T13:33:05;7.18;;;3.10;;
79399;SDS011;68856;45.586;10.264;2023-04-03T13:35:45;7.25;;;3.30;;
79399;SDS011;68856;45.586;10.264;2023-04-03T13:41:04;4.32;;;3.20;;
79399;SDS011;68856;45.586;10.264;2023-04-03T13:43:46;7.28;;;3.60;;
79399;SDS011;68856;45.586;10.264;2023-04-03T13:56:25;6.63;;;4.20;;
79399;SDS011;68856;45.586;10.264;2023-04-03T14:04:15;6.47;;;4.00;;
79399;SDS011;68856;45.586;10.264;2023-04-03T14:06:50;4.85;;;3.53;;
79399;SDS011;68856;45.586;10.264;2023-04-03T14:09:17;6.53;;;3.67;;
79399;SDS011;68856;45.586;10.264;2023-04-03T14:11:45;4.95;;;3.95;;
79399;SDS011;68856;45.586;10.264;2023-04-03T14:14:20;7.45;;;4.35;;
79399;SDS011;68856;45.586;10.264;2023-04-03T14:16:52;15.45;;;4.40;;
79399;SDS011;68856;45.586;10.264;2023-04-03T14:19:25;7.00;;;4.45;;
79399;SDS011;68856;45.586;10.264;2023-04-03T14:21:53;9.88;;;4.50;;
79399;SDS011;68856;45.586;10.264;2023-04-03T14:24:21;6.10;;;4.40;;
79399;SDS011;68856;45.586;10.264;2023-04-03T14:26:49;6.85;;;4.07;;
79399;SDS011;68856;45.586;10.264;2023-04-03T14:29:20;8.98;;;4.30;;
79399;SDS011;68856;45.586;10.264;2023-04-03T14:31:47;7.57;;;4.13;;
79399;SDS011;68856;45.586;10.264;2023-04-03T14:34:15;8.20;;;4.40;;
79399;SDS011;68856;45.586;10.264;2023-04-03T14:36:42;7.25;;;3.58;;
79399;SDS011;68856;45.586;10.264;2023-04-03T14:39:13;6.07;;;4.22;;
79399;SDS011;68856;45.586;10.264;2023-04-03T14:41:42;7.53;;;3.55;;
79399;SDS011;68856;45.586;10.264;2023-04-03T14:44:10;8.07;;;4.15;;
79399;SDS011;68856;45.586;10.264;2023-04-03T14:46:38;8.93;;;3.33;;
79399;SDS011;68856;45.586;10.264;2023-04-03T14:49:14;6.95;;;4.00;;
79399;SDS011;68856;45.586;10.264;2023-04-03T14:51:43;5.88;;;4.15;;
79399;SDS011;68856;45.586;10.264;2023-04-03T14:54:15;6.07;;;4.00;;
79399;SDS011;68856;45.586;10.264;2023-04-03T14:56:44;6.82;;;4.22;;
79399;SDS011;68856;45.586;10.264;2023-04-03T14:59:11;7.70;;;4.45;;
79399;SDS011;68856;45.586;10.264;2023-04-03T15:01:39;3.70;;;3.40;;
79399;SDS011;68856;45.586;10.264;2023-04-03T15:04:13;9.07;;;4.30;;
79399;SDS011;68856;45.586;10.264;2023-04-03T15:06:44;4.38;;;3.97;;
79399;SDS011;68856;45.586;10.264;2023-04-03T15:11:51;7.53;;;3.75;;
79399;SDS011;68856;45.586;10.264;2023-04-03T15:14:19;8.57;;;4.07;;
79399;SDS011;68856;45.586;10.264;2023-04-03T15:16:46;8.38;;;4.18;;
79399;SDS011;68856;45.586;10.264;2023-04-03T15:19:14;7.75;;;3.97;;
79399;SDS011;68856;45.586;10.264;2023-04-03T15:21:40;8.57;;;4.40;;
79399;SDS011;68856;45.586;10.264;2023-04-03T15:24:06;7.22;;;4.45;;
79399;SDS011;68856;45.586;10.264;2023-04-03T15:26:34;6.55;;;3.92;;
79399;SDS011;68856;45.586;10.264;2023-04-03T15:29:00;6.53;;;3.72;;
79399;SDS011;68856;45.586;10.264;2023-04-03T15:31:27;8.48;;;4.18;;
79399;SDS011;68856;45.586;10.264;2023-04-03T15:33:53;5.07;;;4.05;;
79399;SDS011;68856;45.586;10.264;2023-04-03T15:36:19;8.43;;;4.50;;
79399;SDS011;68856;45.586;10.264;2023-04-03T15:38:46;9.13;;;4.45;;
79399;SDS011;68856;45.586;10.264;2023-04-03T15:41:12;7.85;;;4.47;;
79399;SDS011;68856;45.586;10.264;2023-04-03T15:43:38;4.90;;;3.88;;
79399;SDS011;68856;45.586;10.264;2023-04-03T15:46:05;7.47;;;3.90;;
79399;SDS011;68856;45.586;10.264;2023-04-03T15:48:31;9.27;;;3.90;;
79399;SDS011;68856;45.586;10.264;2023-04-03T15:50:57;6.00;;;3.45;;
79399;SDS011;68856;45.586;10.264;2023-04-03T15:53:24;9.63;;;3.60;;
79399;SDS011;68856;45.586;10.264;2023-04-03T15:55:51;5.07;;;3.47;;
79399;SDS011;68856;45.586;10.264;2023-04-03T15:58:17;6.40;;;3.35;;
79399;SDS011;68856;45.586;10.264;2023-04-03T16:00:43;6.32;;;3.58;;
79399;SDS011;68856;45.586;10.264;2023-04-03T16:03:11;12.43;;;3.50;;
79399;SDS011;68856;45.586;10.264;2023-04-03T16:05:41;5.97;;;3.58;;
79399;SDS011;68856;45.586;10.264;2023-04-03T16:08:07;6.18;;;3.35;;
79399;SDS011;68856;45.586;10.264;2023-04-03T16:10:35;6.80;;;5.03;;
79399;SDS011;68856;45.586;10.264;2023-04-03T16:13:02;7.00;;;3.90;;
79399;SDS011;68856;45.586;10.264;2023-04-03T16:15:29;6.90;;;3.70;;
79399;SDS011;68856;45.586;10.264;2023-04-03T16:17:55;7.90;;;3.67;;
79399;SDS011;68856;45.586;10.264;2023-04-03T16:20:23;9.52;;;3.55;;
79399;SDS011;68856;45.586;10.264;2023-04-03T16:22:50;15.75;;;4.07;;
79399;SDS011;68856;45.586;10.264;2023-04-03T16:25:16;5.90;;;3.60;;
79399;SDS011;68856;45.586;10.264;2023-04-03T16:27:43;6.65;;;3.53;;
79399;SDS011;68856;45.586;10.264;2023-04-03T16:30:09;6.65;;;4.05;;
79399;SDS011;68856;45.586;10.264;2023-04-03T16:32:36;8.50;;;4.75;;
79399;SDS011;68856;45.586;10.264;2023-04-03T16:35:04;9.57;;;4.45;;
79399;SDS011;68856;45.586;10.264;2023-04-03T16:37:31;8.57;;;4.43;;
79399;SDS011;68856;45.586;10.264;2023-04-03T16:39:57;8.02;;;3.90;;
79399;SDS011;68856;45.586;10.264;2023-04-03T16:42:24;4.55;;;4.00;;
79399;SDS011;68856;45.586;10.264;2023-04-03T16:44:51;4.90;;;3.97;;
79399;SDS011;68856;45.586;10.264;2023-04-03T16:47:17;5.40;;;4.05;;
79399;SDS011;68856;45.586;10.264;2023-04-03T16:49:44;8.32;;;4.45;;
79399;SDS011;68856;45.586;10.264;2023-04-03T16:52:12;5.95;;;4.03;;
79399;SDS011;68856;45.586;10.264;2023-04-03T16:54:38;7.72;;;4.53;;
79399;SDS011;68856;45.586;10.264;2023-04-03T16:57:05;9.13;;;4.95;;
79399;SDS011;68856;45.586;10.264;2023-04-03T16:59:31;6.15;;;4.40;;
79399;SDS011;68856;45.586;10.264;2023-04-03T17:01:57;9.02;;;4.43;;
79399;SDS011;68856;45.586;10.264;2023-04-03T17:04:23;6.35;;;5.25;;
79399;SDS011;68856;45.586;10.264;2023-04-03T17:06:50;5.82;;;3.72;;